createdAt,value
2024-02-24T00:00:21.796Z,0.98
2024-02-24T00:03:04.661Z,0.70
2024-02-24T00:05:47.392Z,0.90
2024-02-24T00:08:30.137Z,1.33
2024-02-24T00:11:12.895Z,0.90
2024-02-24T00:13:55.894Z,1.30
2024-02-24T00:16:39.967Z,1.05
2024-02-24T00:19:22.976Z,1.30
2024-02-24T00:22:05.824Z,1.50
2024-02-24T00:24:48.603Z,1.00
2024-02-24T00:27:31.622Z,1.10
2024-02-24T00:30:14.950Z,1.30
2024-02-24T00:32:59.086Z,0.90
2024-02-24T00:35:42.246Z,1.10
2024-02-24T00:38:25.041Z,0.80
2024-02-24T00:41:07.953Z,1.13
2024-02-24T00:43:50.773Z,0.77
2024-02-24T00:46:33.581Z,0.80
2024-02-24T00:49:17.747Z,0.85
2024-02-24T00:52:00.498Z,1.10
2024-02-24T00:54:43.235Z,1.15
2024-02-24T00:57:26.405Z,1.05
2024-02-24T01:00:09.800Z,1.13
2024-02-24T01:02:52.585Z,1.20
2024-02-24T01:05:36.793Z,1.00
2024-02-24T01:08:19.545Z,1.10
2024-02-24T01:11:02.378Z,1.13
2024-02-24T01:13:45.679Z,1.30
2024-02-24T01:16:28.433Z,0.90
2024-02-24T01:19:11.134Z,0.90
2024-02-24T01:21:57.488Z,0.82
2024-02-24T01:24:41.313Z,1.02
2024-02-24T01:27:24.042Z,0.82
2024-02-24T01:30:08.384Z,0.90
2024-02-24T01:32:51.161Z,0.70
2024-02-24T01:35:34.042Z,0.80
2024-02-24T01:38:18.210Z,0.85
2024-02-24T01:41:01.083Z,1.00
2024-02-24T01:43:43.967Z,1.02
2024-02-24T01:46:26.684Z,0.70
2024-02-24T01:49:09.690Z,0.70
2024-02-24T01:51:52.429Z,0.60
2024-02-24T01:54:36.983Z,0.82
2024-02-24T01:57:19.859Z,0.80
2024-02-24T02:00:04.353Z,0.70
2024-02-24T02:02:49.294Z,0.80
2024-02-24T02:05:32.177Z,0.88
2024-02-24T02:08:15.072Z,0.80
2024-02-24T02:10:59.390Z,0.65
2024-02-24T02:13:42.391Z,0.70
2024-02-24T02:16:25.247Z,0.80
2024-02-24T02:19:08.221Z,0.75
2024-02-24T02:21:53.846Z,1.00
2024-02-24T02:24:37.912Z,0.77
2024-02-24T02:27:20.605Z,0.70
2024-02-24T02:30:04.519Z,0.70
2024-02-24T02:32:47.411Z,0.98
2024-02-24T02:35:30.199Z,0.90
2024-02-24T02:38:13.020Z,0.80
2024-02-24T02:40:57.258Z,0.90
2024-02-24T02:43:39.962Z,0.57
2024-02-24T02:46:22.714Z,0.80
2024-02-24T02:49:05.526Z,0.95
2024-02-24T02:51:48.312Z,0.70
2024-02-24T02:54:31.124Z,0.75
2024-02-24T02:57:15.195Z,0.65
2024-02-24T02:59:58.085Z,0.98
2024-02-24T03:02:40.988Z,0.60
2024-02-24T03:05:23.953Z,0.60
2024-02-24T03:08:06.909Z,0.70
2024-02-24T03:10:49.926Z,0.80
2024-02-24T03:13:34.244Z,0.60
2024-02-24T03:16:18.584Z,0.90
2024-02-24T03:19:01.447Z,1.10
2024-02-24T03:21:44.913Z,0.77
2024-02-24T03:24:27.664Z,0.70
2024-02-24T03:27:11.602Z,0.80
2024-02-24T03:29:55.822Z,0.90
2024-02-24T03:32:38.702Z,0.80
2024-02-24T03:35:21.512Z,0.85
2024-02-24T03:38:04.272Z,0.88
2024-02-24T03:40:47.097Z,1.00
2024-02-24T03:43:29.808Z,0.85
2024-02-24T03:46:13.970Z,0.90
2024-02-24T03:48:56.822Z,0.70
2024-02-24T03:51:39.695Z,0.80
2024-02-24T03:54:23.845Z,0.93
2024-02-24T03:57:06.848Z,0.90
2024-02-24T03:59:49.729Z,0.80
2024-02-24T04:02:34.007Z,0.80
2024-02-24T04:05:16.862Z,0.93
2024-02-24T04:07:59.577Z,1.00
2024-02-24T04:10:43.281Z,0.80
2024-02-24T04:13:26.034Z,1.00
2024-02-24T04:16:08.833Z,0.93
2024-02-24T04:18:52.951Z,0.80
2024-02-24T04:21:35.720Z,1.08
2024-02-24T04:24:18.496Z,0.98
2024-02-24T04:27:01.256Z,0.73
2024-02-24T04:29:44.112Z,0.70
2024-02-24T04:32:26.887Z,0.90
2024-02-24T04:35:12.360Z,1.23
2024-02-24T04:37:55.046Z,0.88
2024-02-24T04:40:37.885Z,0.90
2024-02-24T04:43:20.592Z,1.00
2024-02-24T04:46:03.256Z,1.15
2024-02-24T04:48:46.067Z,0.80
2024-02-24T04:51:30.270Z,0.90
2024-02-24T04:54:12.971Z,1.00
2024-02-24T04:56:55.665Z,1.10
2024-02-24T04:59:38.579Z,0.90
2024-02-24T05:02:21.303Z,0.93
2024-02-24T05:05:04.136Z,0.80
2024-02-24T05:07:48.180Z,1.00
2024-02-24T05:10:30.879Z,1.10
2024-02-24T05:13:13.602Z,1.00
2024-02-24T05:15:56.267Z,1.02
2024-02-24T05:18:39.860Z,0.85
2024-02-24T05:21:23.094Z,0.80
2024-02-24T05:24:07.848Z,1.00
2024-02-24T05:26:50.567Z,0.95
2024-02-24T05:29:33.971Z,0.90
2024-02-24T05:32:18.014Z,1.10
2024-02-24T05:35:00.985Z,1.13
2024-02-24T05:37:43.852Z,1.00
2024-02-24T05:40:28.028Z,1.17
2024-02-24T05:43:10.705Z,1.35
2024-02-24T05:45:54.990Z,0.70
2024-02-24T05:48:37.983Z,1.05
2024-02-24T05:51:22.453Z,0.82
2024-02-24T05:54:05.465Z,1.05
2024-02-24T05:56:49.612Z,1.10
2024-02-24T05:59:32.414Z,0.90
2024-02-24T06:02:15.133Z,1.05
2024-02-24T06:04:57.838Z,1.10
2024-02-24T06:07:40.756Z,1.00
2024-02-24T06:10:23.493Z,1.17
2024-02-24T06:13:08.223Z,1.30
2024-02-24T06:15:50.877Z,1.00
2024-02-24T06:18:33.622Z,0.95
2024-02-24T06:21:16.406Z,1.05
2024-02-24T06:23:59.093Z,1.00
2024-02-24T06:26:41.834Z,1.00
2024-02-24T06:29:26.028Z,1.10
2024-02-24T06:32:08.782Z,0.90
2024-02-24T06:34:51.565Z,1.10
2024-02-24T06:37:34.302Z,1.27
2024-02-24T06:40:25.946Z,0.75
2024-02-24T06:43:16.007Z,1.10
2024-02-24T06:46:00.636Z,1.10
2024-02-24T06:48:43.986Z,0.95
2024-02-24T06:51:26.807Z,1.00
2024-02-24T06:54:09.438Z,1.13
2024-02-24T06:56:52.304Z,0.93
2024-02-24T06:59:35.678Z,1.00
2024-02-24T07:02:19.823Z,1.20
2024-02-24T07:05:03.513Z,1.17
2024-02-24T07:07:46.248Z,1.10
2024-02-24T07:10:29.245Z,1.10
2024-02-24T07:13:11.886Z,1.08
2024-02-24T07:15:54.605Z,1.10
2024-02-24T07:18:39.430Z,1.38
2024-02-24T07:21:22.208Z,1.20
2024-02-24T07:24:05.053Z,0.85
2024-02-24T07:26:50.552Z,1.00
2024-02-24T07:29:33.819Z,1.10
2024-02-24T07:32:16.612Z,1.05
2024-02-24T07:35:00.883Z,1.02
2024-02-24T07:37:43.763Z,1.20
2024-02-24T07:40:26.441Z,1.00
2024-02-24T07:43:09.110Z,1.17
2024-02-24T07:45:52.038Z,1.08
2024-02-24T07:48:34.806Z,1.40
2024-02-24T07:51:18.869Z,1.02
2024-02-24T07:54:01.536Z,1.00
2024-02-24T07:56:44.448Z,1.15
2024-02-24T07:59:27.192Z,1.00
2024-02-24T08:02:09.933Z,1.00
2024-02-24T08:04:52.661Z,1.05
2024-02-24T08:07:36.851Z,1.27
2024-02-24T08:10:19.681Z,1.10
2024-02-24T08:13:02.426Z,1.15
2024-02-24T08:15:45.170Z,1.20
2024-02-24T08:18:28.101Z,1.27
2024-02-24T08:21:11.446Z,1.08
2024-02-24T08:23:55.515Z,1.30
2024-02-24T08:26:41.270Z,1.17
2024-02-24T08:29:24.577Z,1.08
2024-02-24T08:32:07.946Z,1.10
2024-02-24T08:34:50.689Z,0.98
2024-02-24T08:37:33.423Z,1.20
2024-02-24T08:40:17.750Z,1.00
2024-02-24T08:43:00.505Z,1.33
2024-02-24T08:45:43.679Z,1.30
2024-02-24T08:48:26.620Z,1.20
2024-02-24T08:51:09.421Z,1.13
2024-02-24T08:53:52.315Z,1.10
2024-02-24T08:56:36.446Z,1.02
2024-02-24T08:59:19.158Z,1.10
2024-02-24T09:02:01.891Z,1.15
2024-02-24T09:04:45.091Z,1.17
2024-02-24T09:07:27.928Z,1.27
2024-02-24T09:10:11.005Z,1.10
2024-02-24T09:12:55.165Z,1.17
2024-02-24T09:15:38.037Z,1.10
2024-02-24T09:18:20.891Z,1.30
2024-02-24T09:21:03.669Z,1.10
2024-02-24T09:23:46.402Z,1.05
2024-02-24T09:26:29.794Z,1.10
2024-02-24T09:29:13.974Z,1.17
2024-02-24T09:31:56.837Z,1.20
2024-02-24T09:34:39.554Z,1.20
2024-02-24T09:37:22.467Z,1.10
2024-02-24T09:40:06.916Z,1.10
2024-02-24T09:42:50.146Z,1.10
2024-02-24T09:45:37.024Z,1.17
2024-02-24T09:48:20.490Z,1.48
2024-02-24T09:51:03.528Z,1.20
2024-02-24T09:53:46.298Z,1.38
2024-02-24T09:56:30.304Z,1.10
2024-02-24T09:59:13.331Z,1.20
2024-02-24T10:01:57.432Z,1.50
2024-02-24T10:04:40.045Z,1.25
2024-02-24T10:07:23.369Z,1.30
2024-02-24T10:10:06.490Z,1.10
2024-02-24T10:12:59.144Z,1.08
2024-02-24T10:15:41.797Z,0.98
2024-02-24T10:18:27.790Z,1.13
2024-02-24T10:21:10.637Z,1.40
2024-02-24T10:23:53.450Z,1.17
2024-02-24T10:26:36.216Z,1.75
2024-02-24T10:29:18.968Z,1.10
2024-02-24T10:32:01.951Z,1.00
2024-02-24T10:34:46.080Z,1.10
2024-02-24T10:37:36.572Z,1.20
2024-02-24T10:40:26.395Z,1.23
2024-02-24T10:43:09.894Z,1.33
2024-02-24T10:45:52.605Z,1.38
2024-02-24T10:48:35.499Z,1.27
2024-02-24T10:51:20.050Z,1.42
2024-02-24T10:54:04.841Z,1.45
2024-02-24T10:56:48.502Z,1.45
2024-02-24T10:59:31.861Z,1.30
2024-02-24T11:02:14.838Z,1.00
2024-02-24T11:05:00.321Z,1.00
2024-02-24T11:07:44.446Z,1.20
2024-02-24T11:10:33.900Z,1.30
2024-02-24T11:13:16.672Z,0.98
2024-02-24T11:16:00.090Z,1.00
2024-02-24T11:18:56.015Z,1.00
2024-02-24T11:21:57.524Z,1.08
2024-02-24T11:24:42.111Z,1.00
2024-02-24T11:27:29.479Z,1.30
2024-02-24T11:30:30.647Z,1.00
2024-02-24T11:33:26.063Z,0.90
2024-02-24T11:36:10.960Z,1.20
2024-02-24T11:38:54.376Z,0.98
2024-02-24T11:41:41.190Z,0.80
2024-02-24T11:44:24.017Z,0.80
2024-02-24T11:47:06.836Z,0.90
2024-02-24T11:49:50.459Z,1.00
2024-02-24T11:52:34.368Z,0.90
2024-02-24T11:55:17.191Z,1.00
2024-02-24T11:58:01.483Z,0.95
2024-02-24T12:00:44.407Z,1.10
2024-02-24T12:03:27.098Z,0.70
2024-02-24T12:06:10.418Z,0.85
2024-02-24T12:08:54.140Z,1.10
2024-02-24T12:11:37.119Z,0.80
2024-02-24T12:14:21.693Z,1.15
2024-02-24T12:17:05.557Z,0.90
2024-02-24T12:19:48.416Z,0.80
2024-02-24T12:22:31.332Z,0.82
2024-02-24T12:25:14.710Z,0.80
2024-02-24T12:27:57.620Z,0.90
2024-02-24T12:30:42.531Z,0.80
2024-02-24T12:33:25.594Z,0.68
2024-02-24T12:36:09.235Z,0.80
2024-02-24T12:38:52.092Z,0.70
2024-02-24T12:41:35.040Z,0.70
2024-02-24T12:44:17.922Z,0.80
2024-02-24T12:47:02.926Z,0.77
2024-02-24T12:49:46.290Z,0.80
2024-02-24T12:52:30.080Z,0.77
2024-02-24T12:55:15.935Z,0.90
2024-02-24T12:57:58.671Z,0.70
2024-02-24T13:00:41.482Z,0.68
2024-02-24T13:03:25.807Z,0.70
2024-02-24T13:06:09.080Z,0.80
2024-02-24T13:08:52.016Z,0.73
2024-02-24T13:11:35.039Z,0.60
2024-02-24T13:14:18.141Z,1.05
2024-02-24T13:17:00.946Z,0.60
2024-02-24T13:19:45.313Z,0.60
2024-02-24T13:22:28.084Z,0.70
2024-02-24T13:25:10.925Z,0.63
2024-02-24T13:27:53.839Z,0.82
2024-02-24T13:30:37.151Z,0.60
2024-02-24T13:33:20.185Z,0.50
2024-02-24T13:36:04.530Z,0.50
2024-02-24T13:38:47.500Z,0.70
2024-02-24T13:41:30.332Z,0.60
2024-02-24T13:44:14.176Z,0.68
2024-02-24T13:46:57.037Z,0.60
2024-02-24T13:49:40.093Z,0.40
2024-02-24T13:52:24.326Z,0.60
2024-02-24T13:55:16.119Z,0.60
2024-02-24T13:57:58.874Z,0.50
2024-02-24T14:00:41.671Z,0.60
2024-02-24T14:03:24.710Z,0.65
2024-02-24T14:06:07.651Z,0.50
2024-02-24T14:08:50.668Z,0.70
2024-02-24T14:11:35.259Z,0.60
2024-02-24T14:14:18.106Z,0.50
2024-02-24T14:17:00.891Z,0.52
2024-02-24T14:19:43.668Z,0.60
2024-02-24T14:22:26.561Z,0.63
2024-02-24T14:25:09.790Z,0.90
2024-02-24T14:27:55.813Z,0.60
2024-02-24T14:30:39.200Z,0.70
2024-02-24T14:33:22.199Z,0.50
2024-02-24T14:36:05.418Z,0.57
2024-02-24T14:38:48.249Z,0.60
2024-02-24T14:41:31.409Z,0.60
2024-02-24T14:44:15.586Z,0.57
2024-02-24T14:46:58.525Z,0.90
2024-02-24T14:49:41.602Z,0.93
2024-02-24T14:52:24.872Z,0.60
2024-02-24T14:55:08.299Z,0.63
2024-02-24T14:57:51.023Z,0.70
2024-02-24T15:00:35.076Z,0.50
2024-02-24T15:03:17.911Z,0.70
2024-02-24T15:06:00.928Z,0.60
2024-02-24T15:08:43.783Z,0.60
2024-02-24T15:11:26.677Z,0.68
2024-02-24T15:14:09.544Z,0.80
2024-02-24T15:16:53.638Z,1.80
2024-02-24T15:19:41.587Z,1.17
2024-02-24T15:22:24.501Z,1.00
2024-02-24T15:25:08.460Z,1.13
2024-02-24T15:27:51.320Z,0.80
2024-02-24T15:30:34.145Z,0.70
2024-02-24T15:33:18.541Z,0.80
2024-02-24T15:36:01.709Z,0.80
2024-02-24T15:38:44.596Z,0.70
2024-02-24T15:41:27.424Z,0.90
2024-02-24T15:44:10.116Z,0.65
2024-02-24T15:46:55.768Z,0.70
2024-02-24T15:49:41.137Z,1.08
2024-02-24T15:52:24.347Z,0.90
2024-02-24T15:55:07.537Z,0.73
2024-02-24T15:57:50.305Z,1.00
2024-02-24T16:00:33.043Z,0.70
2024-02-24T16:03:17.185Z,0.60
2024-02-24T16:06:01.444Z,0.70
2024-02-24T16:08:44.470Z,0.40
2024-02-24T16:11:27.319Z,0.35
2024-02-24T16:14:10.034Z,0.50
2024-02-24T16:16:52.822Z,0.43
2024-02-24T16:19:35.592Z,0.40
2024-02-24T16:22:19.704Z,0.40
2024-02-24T16:25:02.440Z,0.50
2024-02-24T16:27:45.230Z,0.50
2024-02-24T16:30:27.972Z,0.43
2024-02-24T16:33:11.242Z,0.50
2024-02-24T16:35:54.083Z,0.52
2024-02-24T16:38:38.256Z,0.47
2024-02-24T16:41:21.027Z,0.45
2024-02-24T16:44:06.615Z,0.40
2024-02-24T16:46:50.833Z,0.80
2024-02-24T16:49:33.670Z,0.80
2024-02-24T16:52:16.422Z,0.60
2024-02-24T16:55:00.528Z,0.70
2024-02-24T16:57:43.266Z,0.45
2024-02-24T17:00:26.323Z,0.40
2024-02-24T17:03:09.086Z,0.50
2024-02-24T17:05:51.889Z,0.60
2024-02-24T17:08:34.665Z,1.10
2024-02-24T17:11:21.270Z,0.73
2024-02-24T17:14:04.098Z,0.98
2024-02-24T17:16:46.780Z,0.88
2024-02-24T17:19:29.601Z,0.80
2024-02-24T17:22:12.429Z,0.70
2024-02-24T17:24:55.475Z,0.80
2024-02-24T17:27:40.585Z,0.82
2024-02-24T17:30:24.118Z,0.90
2024-02-24T17:33:06.979Z,0.75
2024-02-24T17:35:49.768Z,1.08
2024-02-24T17:38:33.247Z,0.80
2024-02-24T17:41:19.706Z,1.00
2024-02-24T17:44:03.871Z,1.42
2024-02-24T17:46:46.629Z,1.30
2024-02-24T17:49:29.589Z,1.15
2024-02-24T17:52:12.390Z,1.05
2024-02-24T17:54:56.439Z,1.02
2024-02-24T17:57:39.191Z,1.30
2024-02-24T18:00:23.984Z,1.40
2024-02-24T18:03:06.811Z,1.58
2024-02-24T18:05:49.631Z,1.40
2024-02-24T18:08:32.509Z,1.50
2024-02-24T18:11:15.236Z,1.65
2024-02-24T18:13:57.925Z,2.20
2024-02-24T18:16:41.960Z,2.17
2024-02-24T18:19:24.880Z,1.90
2024-02-24T18:22:07.669Z,1.83
2024-02-24T18:24:50.537Z,1.60
2024-02-24T18:27:33.259Z,1.45
2024-02-24T18:30:16.059Z,1.40
2024-02-24T18:33:00.319Z,1.40
2024-02-24T18:35:43.249Z,1.23
2024-02-24T18:38:25.989Z,1.10
2024-02-24T18:41:08.683Z,1.17
2024-02-24T18:43:51.538Z,1.17
2024-02-24T18:46:34.212Z,1.30
2024-02-24T18:49:18.410Z,1.20
2024-02-24T18:52:01.368Z,1.30
2024-02-24T18:54:46.360Z,1.00
2024-02-24T18:57:29.075Z,1.20
2024-02-24T19:00:12.257Z,1.25
2024-02-24T19:02:54.957Z,1.10
2024-02-24T19:05:39.291Z,1.23
2024-02-24T19:08:22.172Z,1.20
2024-02-24T19:11:04.999Z,1.20
2024-02-24T19:13:47.718Z,1.50
2024-02-24T19:16:31.064Z,1.23
2024-02-24T19:19:15.734Z,1.30
2024-02-24T19:21:59.974Z,1.10
2024-02-24T19:24:42.703Z,1.42
2024-02-24T19:27:25.445Z,1.10
2024-02-24T19:30:09.370Z,1.40
2024-02-24T19:32:52.355Z,1.20
2024-02-24T19:35:36.156Z,1.38
2024-02-24T19:38:20.279Z,1.40
2024-02-24T19:41:02.994Z,1.40
2024-02-24T19:43:45.693Z,1.60
2024-02-24T19:46:28.437Z,1.67
2024-02-24T19:49:11.249Z,1.70
2024-02-24T19:51:54.053Z,1.92
2024-02-24T19:54:38.175Z,1.83
2024-02-24T19:57:21.575Z,1.80
2024-02-24T20:00:05.569Z,1.90
2024-02-24T20:02:53.623Z,2.00
2024-02-24T20:05:36.488Z,1.73
2024-02-24T20:08:19.227Z,1.90
2024-02-24T20:11:03.266Z,2.00
2024-02-24T20:13:46.233Z,1.83
2024-02-24T20:16:28.942Z,1.90
2024-02-24T20:19:11.691Z,1.90
2024-02-24T20:21:54.413Z,1.88
2024-02-24T20:24:39.297Z,2.15
2024-02-24T20:27:23.338Z,1.80
2024-02-24T20:30:06.643Z,1.90
2024-02-24T20:32:53.140Z,1.80
2024-02-24T20:35:36.014Z,1.80
2024-02-24T20:38:18.749Z,1.80
2024-02-24T20:41:03.046Z,1.60
2024-02-24T20:43:50.696Z,1.33
2024-02-24T20:46:34.916Z,1.20
2024-02-24T20:49:22.630Z,1.30
2024-02-24T20:52:05.601Z,1.00
2024-02-24T20:54:50.212Z,1.30
2024-02-24T20:57:32.879Z,1.10
2024-02-24T21:00:17.633Z,0.90
2024-02-24T21:03:00.476Z,0.80
2024-02-24T21:05:43.822Z,0.77
2024-02-24T21:08:26.574Z,0.70
2024-02-24T21:11:09.522Z,0.60
2024-02-24T21:13:52.204Z,0.55
2024-02-24T21:16:36.726Z,0.60
2024-02-24T21:19:19.562Z,0.50
2024-02-24T21:22:03.533Z,0.50
2024-02-24T21:24:46.269Z,0.57
2024-02-24T21:27:29.069Z,0.50
2024-02-24T21:30:12.484Z,0.50
2024-02-24T21:32:56.731Z,0.55
2024-02-24T21:35:41.395Z,0.60
2024-02-24T21:38:24.442Z,0.57
2024-02-24T21:41:07.223Z,0.60
2024-02-24T21:43:49.906Z,0.60
2024-02-24T21:46:32.698Z,0.60
2024-02-24T21:49:18.749Z,0.45
2024-02-24T21:52:01.620Z,0.50
2024-02-24T21:54:44.383Z,0.40
2024-02-24T21:57:27.285Z,0.40
2024-02-24T22:00:16.404Z,0.60
2024-02-24T22:03:00.266Z,0.50
2024-02-24T22:05:44.726Z,0.50
2024-02-24T22:08:27.834Z,0.60
2024-02-24T22:11:10.649Z,0.47
2024-02-24T22:13:53.490Z,0.55
2024-02-24T22:16:36.246Z,0.65
2024-02-24T22:19:19.109Z,0.52
2024-02-24T22:22:03.278Z,0.70
2024-02-24T22:24:48.483Z,0.65
2024-02-24T22:27:31.533Z,0.70
2024-02-24T22:30:16.815Z,0.60
2024-02-24T22:33:00.214Z,0.60
2024-02-24T22:35:43.163Z,0.70
2024-02-24T22:38:27.406Z,0.75
2024-02-24T22:41:10.162Z,0.70
2024-02-24T22:43:52.946Z,0.77
2024-02-24T22:46:35.684Z,0.68
2024-02-24T22:49:18.518Z,0.70
2024-02-24T22:52:01.422Z,0.70
2024-02-24T22:54:45.746Z,0.80
2024-02-24T22:57:28.481Z,0.80
2024-02-24T23:00:14.527Z,0.68
2024-02-24T23:02:57.660Z,0.70
2024-02-24T23:05:40.512Z,0.70
2024-02-24T23:08:23.344Z,0.70
2024-02-24T23:11:07.588Z,0.80
2024-02-24T23:13:50.320Z,0.70
2024-02-24T23:16:33.010Z,0.70
2024-02-24T23:19:15.811Z,0.70
2024-02-24T23:21:58.673Z,0.60
2024-02-24T23:24:41.469Z,0.68
2024-02-24T23:27:25.527Z,0.55
2024-02-24T23:30:09.155Z,0.82
2024-02-24T23:32:52.006Z,0.70
2024-02-24T23:35:37.287Z,0.80
2024-02-24T23:38:20.528Z,0.63
2024-02-24T23:41:03.317Z,0.60
2024-02-24T23:43:47.428Z,0.70
2024-02-24T23:46:30.274Z,0.90
2024-02-24T23:49:13.231Z,0.70
2024-02-24T23:51:56.280Z,0.80
2024-02-24T23:54:38.996Z,0.65
2024-02-24T23:57:21.740Z,0.60
